createdAt,value
2022-09-28T00:00:32.865Z,94.87
2022-09-28T00:01:33.009Z,94.86
2022-09-28T00:02:33.195Z,94.87
2022-09-28T00:03:33.200Z,94.88
2022-09-28T00:04:33.322Z,94.88
2022-09-28T00:05:33.417Z,94.89
2022-09-28T00:06:33.690Z,94.85
2022-09-28T00:07:33.664Z,94.87
2022-09-28T00:08:33.802Z,94.87
2022-09-28T00:09:33.886Z,94.88
2022-09-28T00:10:34.008Z,94.88
2022-09-28T00:11:34.216Z,94.92
2022-09-28T00:12:34.269Z,94.91
2022-09-28T00:13:34.342Z,94.93
2022-09-28T00:14:34.454Z,94.89
2022-09-28T00:15:34.560Z,94.90
2022-09-28T00:16:34.852Z,94.91
2022-09-28T00:17:34.797Z,94.94
2022-09-28T00:18:34.903Z,94.93
2022-09-28T00:19:35.100Z,94.91
2022-09-28T00:20:35.135Z,94.93
2022-09-28T00:21:35.323Z,94.95
2022-09-28T00:22:35.373Z,94.94
2022-09-28T00:23:35.493Z,94.96
2022-09-28T00:24:35.597Z,94.98
2022-09-28T00:25:35.683Z,94.99
2022-09-28T00:26:35.862Z,94.99
2022-09-28T00:27:35.901Z,95.01
2022-09-28T00:28:36.010Z,95.03
2022-09-28T00:29:36.127Z,95.03
2022-09-28T00:30:36.234Z,95.03
2022-09-28T00:31:36.468Z,95.04
2022-09-28T00:32:36.453Z,95.04
2022-09-28T00:33:36.562Z,95.06
2022-09-28T00:34:36.710Z,95.08
2022-09-28T00:35:36.813Z,95.09
2022-09-28T00:36:36.939Z,95.12
2022-09-28T00:37:37.065Z,95.13
2022-09-28T00:38:37.143Z,95.12
2022-09-28T00:39:37.237Z,95.13
2022-09-28T00:40:37.417Z,95.09
2022-09-28T00:41:37.478Z,95.07
2022-09-28T00:42:37.606Z,95.07
2022-09-28T00:43:37.700Z,95.07
2022-09-28T00:44:37.829Z,95.08
2022-09-28T00:45:37.973Z,95.08
2022-09-28T00:46:38.214Z,95.10
2022-09-28T00:47:38.189Z,95.12
2022-09-28T00:48:38.276Z,95.10
2022-09-28T00:49:38.386Z,95.13
2022-09-28T00:50:38.504Z,95.12
2022-09-28T00:51:38.683Z,95.13
2022-09-28T00:52:39.138Z,95.11
2022-09-28T00:53:38.846Z,95.11
2022-09-28T00:54:38.977Z,95.12
2022-09-28T00:55:39.054Z,95.09
2022-09-28T00:56:39.185Z,95.09
2022-09-28T00:57:39.243Z,95.11
2022-09-28T00:58:39.357Z,95.14
2022-09-28T00:59:39.464Z,95.14
2022-09-28T01:00:39.635Z,95.10
2022-09-28T01:01:39.779Z,95.09
2022-09-28T01:02:39.802Z,95.09
2022-09-28T01:03:39.895Z,95.07
2022-09-28T01:04:40.031Z,95.06
2022-09-28T01:05:40.132Z,95.04
2022-09-28T01:06:40.487Z,95.05
2022-09-28T01:07:40.354Z,95.07
2022-09-28T01:08:40.461Z,95.05
2022-09-28T01:09:40.569Z,95.04
2022-09-28T01:10:40.680Z,95.01
2022-09-28T01:11:40.831Z,95.02
2022-09-28T01:12:40.899Z,95.02
2022-09-28T01:13:41.029Z,95.00
2022-09-28T01:14:41.130Z,95.00
2022-09-28T01:15:41.249Z,95.00
2022-09-28T01:16:41.561Z,94.99
2022-09-28T01:17:41.456Z,95.00
2022-09-28T01:18:41.559Z,94.99
2022-09-28T01:19:41.710Z,94.97
2022-09-28T01:20:41.794Z,94.97
2022-09-28T01:21:41.937Z,94.96
2022-09-28T01:22:42.016Z,94.94
2022-09-28T01:23:42.147Z,94.95
2022-09-28T01:24:42.260Z,94.97
2022-09-28T01:25:42.390Z,94.99
2022-09-28T01:26:42.508Z,95.02
2022-09-28T01:27:42.606Z,95.02
2022-09-28T01:28:42.726Z,95.01
2022-09-28T01:29:42.816Z,94.98
2022-09-28T01:30:42.946Z,94.94
2022-09-28T01:31:43.100Z,94.94
2022-09-28T01:32:43.177Z,94.98
2022-09-28T01:33:43.293Z,94.99
2022-09-28T01:34:43.416Z,95.00
2022-09-28T01:35:43.507Z,94.99
2022-09-28T01:36:43.655Z,95.00
2022-09-28T01:37:43.733Z,95.02
2022-09-28T01:38:43.822Z,94.98
2022-09-28T01:39:43.954Z,94.92
2022-09-28T01:40:44.089Z,94.91
2022-09-28T01:41:44.328Z,94.88
2022-09-28T01:42:44.322Z,94.90
2022-09-28T01:43:44.380Z,94.89
2022-09-28T01:44:44.505Z,94.88
2022-09-28T01:45:44.676Z,94.88
2022-09-28T01:46:44.744Z,94.90
2022-09-28T01:47:44.846Z,94.87
2022-09-28T01:48:44.960Z,94.86
2022-09-28T01:49:45.081Z,94.85
2022-09-28T01:50:45.189Z,94.89
2022-09-28T01:51:45.458Z,94.90
2022-09-28T01:52:45.408Z,94.91
2022-09-28T01:53:45.509Z,94.90
2022-09-28T01:54:45.628Z,94.89
2022-09-28T01:55:45.768Z,94.90
2022-09-28T01:56:45.961Z,94.87
2022-09-28T01:57:45.987Z,94.86
2022-09-28T01:58:46.111Z,94.86
2022-09-28T01:59:46.216Z,94.86
2022-09-28T02:00:46.378Z,94.88
2022-09-28T02:01:46.537Z,94.89
2022-09-28T02:02:46.559Z,94.89
2022-09-28T02:03:46.665Z,94.86
2022-09-28T02:04:46.786Z,94.87
2022-09-28T02:05:46.914Z,94.85
2022-09-28T02:06:47.139Z,94.83
2022-09-28T02:07:47.178Z,94.83
2022-09-28T02:08:47.246Z,94.83
2022-09-28T02:09:47.356Z,94.83
2022-09-28T02:10:47.475Z,94.86
2022-09-28T02:11:47.682Z,94.88
2022-09-28T02:12:47.708Z,94.86
2022-09-28T02:13:47.803Z,94.86
2022-09-28T02:14:47.933Z,94.84
2022-09-28T02:15:48.041Z,94.81
2022-09-28T02:16:48.182Z,94.80
2022-09-28T02:17:48.281Z,94.83
2022-09-28T02:18:48.383Z,94.84
2022-09-28T02:19:48.501Z,94.84
2022-09-28T02:20:48.600Z,94.85
2022-09-28T02:21:48.750Z,94.86
2022-09-28T02:22:48.820Z,94.86
2022-09-28T02:23:48.939Z,94.85
2022-09-28T02:24:49.063Z,94.86
2022-09-28T02:25:49.169Z,94.87
2022-09-28T02:26:49.330Z,94.88
2022-09-28T02:27:49.407Z,94.89
2022-09-28T02:28:49.508Z,94.88
2022-09-28T02:29:49.638Z,94.90
2022-09-28T02:30:49.828Z,94.91
2022-09-28T02:31:49.979Z,94.90
2022-09-28T02:32:50.031Z,94.93
2022-09-28T02:33:50.627Z,94.93
2022-09-28T02:34:50.265Z,94.92
2022-09-28T02:35:50.387Z,94.92
2022-09-28T02:36:50.506Z,94.92
2022-09-28T02:37:50.596Z,94.91
2022-09-28T02:38:50.717Z,94.95
2022-09-28T02:39:50.827Z,94.99
2022-09-28T02:40:50.990Z,94.96
2022-09-28T02:41:51.065Z,94.96
2022-09-28T02:42:51.210Z,94.93
2022-09-28T02:43:51.265Z,94.90
2022-09-28T02:44:51.444Z,94.90
2022-09-28T02:45:51.521Z,94.88
2022-09-28T02:46:51.623Z,94.89
2022-09-28T02:47:51.703Z,94.88
2022-09-28T02:49:04.949Z,94.88
2022-09-28T02:49:52.942Z,94.87
2022-09-28T02:50:52.057Z,94.90
2022-09-28T02:51:52.233Z,94.87
2022-09-28T02:52:52.342Z,94.89
2022-09-28T02:53:52.401Z,94.88
2022-09-28T02:54:52.513Z,94.89
2022-09-28T02:55:52.635Z,94.90
2022-09-28T02:56:52.774Z,94.89
2022-09-28T02:57:52.850Z,94.88
2022-09-28T02:58:52.939Z,94.89
2022-09-28T02:59:53.051Z,94.86
2022-09-28T03:00:53.223Z,94.84
2022-09-28T03:01:53.410Z,94.87
2022-09-28T03:02:53.399Z,94.81
2022-09-28T03:03:53.513Z,94.80
2022-09-28T03:04:53.610Z,94.77
2022-09-28T03:05:53.734Z,94.77
2022-09-28T03:06:54.041Z,94.75
2022-09-28T03:07:54.007Z,94.73
2022-09-28T03:08:54.049Z,94.69
2022-09-28T03:09:54.165Z,94.70
2022-09-28T03:10:54.278Z,94.70
2022-09-28T03:11:54.567Z,94.70
2022-09-28T03:12:54.509Z,94.67
2022-09-28T03:13:54.638Z,94.63
2022-09-28T03:14:54.724Z,94.58
2022-09-28T03:15:54.858Z,94.58
2022-09-28T03:16:54.987Z,94.59
2022-09-28T03:17:55.066Z,94.61
2022-09-28T03:18:55.172Z,94.61
2022-09-28T03:19:55.285Z,94.61
2022-09-28T03:20:55.386Z,94.60
2022-09-28T03:21:55.675Z,94.56
2022-09-28T03:23:22.716Z,94.57
2022-09-28T03:23:56.743Z,94.61
2022-09-28T03:24:55.853Z,94.62
2022-09-28T03:25:55.953Z,94.63
2022-09-28T03:26:56.153Z,94.63
2022-09-28T03:27:56.203Z,94.65
2022-09-28T03:28:56.309Z,94.65
2022-09-28T03:29:56.457Z,94.65
2022-09-28T03:30:56.529Z,94.64
2022-09-28T03:31:56.750Z,94.68
2022-09-28T03:32:56.791Z,94.71
2022-09-28T03:33:56.910Z,94.70
2022-09-28T03:34:56.994Z,94.71
2022-09-28T03:35:57.130Z,94.72
2022-09-28T03:36:57.259Z,94.74
2022-09-28T03:37:57.404Z,94.77
2022-09-28T03:38:57.528Z,94.81
2022-09-28T03:39:57.632Z,94.78
2022-09-28T03:40:57.892Z,94.78
2022-09-28T03:41:57.952Z,94.79
2022-09-28T03:42:57.998Z,94.77
2022-09-28T03:43:58.155Z,94.76
2022-09-28T03:44:58.238Z,94.78
2022-09-28T03:45:58.437Z,94.76
2022-09-28T03:46:58.495Z,94.72
2022-09-28T03:47:58.618Z,94.72
2022-09-28T03:48:58.728Z,94.73
2022-09-28T03:49:58.862Z,94.74
2022-09-28T03:50:58.976Z,94.70
2022-09-28T03:51:59.096Z,94.70
2022-09-28T03:52:59.248Z,94.68
2022-09-28T03:53:59.318Z,94.70
2022-09-28T03:54:59.413Z,94.68
2022-09-28T03:55:59.514Z,94.71
2022-09-28T03:56:59.676Z,94.73
2022-09-28T03:57:59.739Z,94.72
2022-09-28T03:58:59.845Z,94.68
2022-09-28T03:59:59.982Z,94.62
2022-09-28T04:01:00.155Z,94.59
2022-09-28T04:02:00.245Z,94.57
2022-09-28T04:03:00.312Z,94.61
2022-09-28T04:04:00.426Z,94.57
2022-09-28T04:05:00.592Z,94.59
2022-09-28T04:06:00.642Z,94.58
2022-09-28T04:07:00.832Z,94.57
2022-09-28T04:08:00.902Z,94.58
2022-09-28T04:09:01.032Z,94.58
2022-09-28T04:10:01.132Z,94.58
2022-09-28T04:11:01.231Z,94.59
2022-09-28T04:12:04.273Z,94.58
2022-09-28T04:13:01.462Z,94.60
2022-09-28T04:14:01.581Z,94.57
2022-09-28T04:15:01.703Z,94.61
2022-09-28T04:16:01.915Z,94.59
2022-09-28T04:17:01.922Z,94.56
2022-09-28T04:18:02.027Z,94.53
2022-09-28T04:19:02.127Z,94.56
2022-09-28T04:20:02.265Z,94.59
2022-09-28T04:21:02.347Z,94.62
2022-09-28T04:22:02.489Z,94.63
2022-09-28T04:23:03.147Z,94.62
2022-09-28T04:24:02.691Z,94.61
2022-09-28T04:25:02.786Z,94.59
2022-09-28T04:26:02.895Z,94.58
2022-09-28T04:27:03.032Z,94.57
2022-09-28T04:28:03.136Z,94.58
2022-09-28T04:29:06.571Z,94.56
2022-09-28T04:30:03.397Z,94.57
2022-09-28T04:31:03.465Z,94.57
2022-09-28T04:32:03.662Z,94.59
2022-09-28T04:33:03.697Z,94.62
2022-09-28T04:34:03.794Z,94.65
2022-09-28T04:35:03.916Z,94.65
2022-09-28T04:36:04.015Z,94.67
2022-09-28T04:37:04.166Z,94.63
2022-09-28T04:38:04.292Z,94.65
2022-09-28T04:39:04.334Z,94.68
2022-09-28T04:40:04.435Z,94.70
2022-09-28T04:41:04.554Z,94.75
2022-09-28T04:42:04.714Z,94.76
2022-09-28T04:43:04.797Z,94.74
2022-09-28T04:44:04.889Z,94.77
2022-09-28T04:45:05.010Z,94.78
2022-09-28T04:46:05.144Z,94.78
2022-09-28T04:47:05.514Z,94.78
2022-09-28T04:48:05.371Z,94.80
2022-09-28T04:49:05.478Z,94.79
2022-09-28T04:50:05.594Z,94.81
2022-09-28T04:51:05.712Z,94.77
2022-09-28T04:52:05.821Z,94.77
2022-09-28T04:53:05.912Z,94.77
2022-09-28T04:54:06.059Z,94.74
2022-09-28T04:55:06.163Z,94.74
2022-09-28T04:56:06.305Z,94.75
2022-09-28T04:57:06.466Z,94.76
2022-09-28T04:58:06.507Z,94.78
2022-09-28T04:59:06.608Z,94.78
2022-09-28T05:00:06.737Z,94.76
2022-09-28T05:01:06.883Z,94.76
2022-09-28T05:02:07.019Z,94.71
2022-09-28T05:03:07.086Z,94.66
2022-09-28T05:04:07.227Z,94.65
2022-09-28T05:05:07.284Z,94.64
2022-09-28T05:06:07.426Z,94.59
2022-09-28T05:07:07.557Z,94.61
2022-09-28T05:08:07.686Z,94.64
2022-09-28T05:09:07.785Z,94.61
2022-09-28T05:10:07.876Z,94.59
2022-09-28T05:11:08.008Z,94.57
2022-09-28T05:12:08.266Z,94.56
2022-09-28T05:13:08.228Z,94.55
2022-09-28T05:14:08.337Z,94.54
2022-09-28T05:15:08.469Z,94.53
2022-09-28T05:16:08.623Z,94.43
2022-09-28T05:17:08.690Z,94.40
2022-09-28T05:18:08.783Z,94.39
2022-09-28T05:19:08.913Z,94.43
2022-09-28T05:20:09.032Z,94.46
2022-09-28T05:21:10.156Z,94.46
2022-09-28T05:22:09.292Z,94.39
2022-09-28T05:23:09.355Z,94.38
2022-09-28T05:24:09.472Z,94.39
2022-09-28T05:25:09.605Z,94.34
2022-09-28T05:26:09.742Z,94.31
2022-09-28T05:27:09.837Z,94.32
2022-09-28T05:28:10.015Z,94.34
2022-09-28T05:29:10.095Z,94.37
2022-09-28T05:30:10.166Z,94.37
2022-09-28T05:31:10.270Z,94.40
2022-09-28T05:32:10.443Z,94.43
2022-09-28T05:33:10.533Z,94.47
2022-09-28T05:34:10.676Z,94.52
2022-09-28T05:35:10.729Z,94.56
2022-09-28T05:36:10.851Z,94.55
2022-09-28T05:37:11.009Z,94.59
2022-09-28T05:38:11.069Z,94.60
2022-09-28T05:39:11.267Z,94.62
2022-09-28T05:40:11.306Z,94.66
2022-09-28T05:41:11.483Z,94.68
2022-09-28T05:42:11.579Z,94.71
2022-09-28T05:43:11.637Z,94.72
2022-09-28T05:44:11.740Z,94.72
2022-09-28T05:45:11.858Z,94.70
2022-09-28T05:46:12.015Z,94.72
2022-09-28T05:47:12.116Z,94.69
2022-09-28T05:48:12.177Z,94.72
2022-09-28T05:49:12.290Z,94.73
2022-09-28T05:50:12.395Z,94.73
2022-09-28T05:51:12.530Z,94.74
2022-09-28T05:52:12.664Z,94.75
2022-09-28T05:53:12.731Z,94.75
2022-09-28T05:54:12.850Z,94.80
2022-09-28T05:55:12.967Z,94.78
2022-09-28T05:56:13.083Z,94.77
2022-09-28T05:57:13.232Z,94.73
2022-09-28T05:58:14.254Z,94.74
2022-09-28T05:59:13.416Z,94.77
2022-09-28T06:00:13.509Z,94.74
2022-09-28T06:01:13.706Z,94.73
2022-09-28T06:02:13.838Z,94.74
2022-09-28T06:03:13.902Z,94.73
2022-09-28T06:04:14.013Z,94.66
2022-09-28T06:05:14.120Z,94.65
2022-09-28T06:06:14.247Z,94.63
2022-09-28T06:07:14.547Z,94.62
2022-09-28T06:08:14.449Z,94.63
2022-09-28T06:09:14.580Z,94.65
2022-09-28T06:10:14.762Z,94.61
2022-09-28T06:11:14.841Z,94.64
2022-09-28T06:12:15.109Z,94.65
2022-09-28T06:13:15.059Z,94.63
2022-09-28T06:14:15.192Z,94.65
2022-09-28T06:15:15.280Z,94.61
2022-09-28T06:16:15.456Z,94.59
2022-09-28T06:17:15.529Z,94.65
2022-09-28T06:18:15.589Z,94.70
2022-09-28T06:19:15.717Z,94.69
2022-09-28T06:20:15.818Z,94.66
2022-09-28T06:21:16.018Z,94.56
2022-09-28T06:22:16.050Z,94.51
2022-09-28T06:23:16.157Z,94.58
2022-09-28T06:24:16.256Z,94.64
2022-09-28T06:25:16.436Z,94.63
2022-09-28T06:26:16.516Z,94.61
2022-09-28T06:27:16.591Z,94.58
2022-09-28T06:28:16.695Z,94.58
2022-09-28T06:29:19.430Z,94.58
2022-09-28T06:30:16.904Z,94.58
2022-09-28T06:31:17.078Z,94.53
2022-09-28T06:32:17.116Z,94.47
2022-09-28T06:33:17.225Z,94.52
2022-09-28T06:34:17.509Z,94.58
2022-09-28T06:35:17.444Z,94.47
2022-09-28T06:36:17.583Z,94.30
2022-09-28T06:37:17.679Z,94.30
2022-09-28T06:38:17.831Z,94.36
2022-09-28T06:39:17.981Z,94.34
2022-09-28T06:40:18.102Z,94.36
2022-09-28T06:41:18.184Z,94.28
2022-09-28T06:42:18.302Z,94.32
2022-09-28T06:43:18.414Z,94.27
2022-09-28T06:44:18.679Z,94.08
2022-09-28T06:45:18.660Z,93.99
2022-09-28T06:46:18.844Z,94.04
2022-09-28T06:47:18.861Z,94.01
2022-09-28T06:48:18.980Z,93.96
2022-09-28T06:49:19.712Z,93.88
2022-09-28T06:50:19.190Z,93.79
2022-09-28T06:51:19.349Z,93.64
2022-09-28T06:52:19.421Z,93.62
2022-09-28T06:53:19.510Z,93.55
2022-09-28T06:54:19.637Z,93.41
2022-09-28T06:55:19.758Z,93.41
2022-09-28T06:56:19.877Z,93.46
2022-09-28T06:57:19.959Z,93.26
2022-09-28T06:58:20.086Z,93.22
2022-09-28T06:59:20.220Z,93.28
2022-09-28T07:00:20.327Z,93.29
2022-09-28T07:01:20.517Z,93.44
2022-09-28T07:02:20.588Z,93.26
2022-09-28T07:03:20.667Z,93.03
2022-09-28T07:04:20.810Z,93.07
2022-09-28T07:05:20.936Z,92.94
2022-09-28T07:06:21.035Z,92.92
2022-09-28T07:07:21.130Z,92.73
2022-09-28T07:08:21.233Z,92.64
2022-09-28T07:09:32.400Z,92.68
2022-09-28T07:10:22.442Z,92.52
2022-09-28T07:11:21.586Z,92.61
2022-09-28T07:12:21.674Z,92.64
2022-09-28T07:13:46.715Z,92.79
2022-09-28T07:14:40.037Z,93.03
2022-09-28T07:15:22.999Z,92.94
2022-09-28T07:16:26.944Z,92.84
2022-09-28T07:17:23.286Z,92.71
2022-09-28T07:18:22.348Z,92.46
2022-09-28T07:19:22.466Z,92.45
2022-09-28T07:20:22.593Z,92.49
2022-09-28T07:21:29.926Z,92.56
2022-09-28T07:22:39.553Z,92.35
2022-09-28T07:23:23.882Z,92.26
2022-09-28T07:24:23.003Z,92.44
2022-09-28T07:25:23.129Z,92.25
2022-09-28T07:26:24.556Z,92.20
2022-09-28T07:27:28.118Z,91.68
2022-09-28T07:28:24.439Z,91.57
2022-09-28T07:29:23.580Z,91.47
2022-09-28T07:30:23.686Z,91.60
2022-09-28T07:31:23.803Z,91.18
2022-09-28T07:32:23.924Z,90.83
2022-09-28T07:33:23.974Z,91.04
2022-09-28T07:34:24.099Z,91.12
2022-09-28T07:35:24.210Z,90.50
2022-09-28T07:36:24.327Z,90.49
2022-09-28T07:37:24.447Z,90.75
2022-09-28T07:38:24.558Z,90.65
2022-09-28T07:39:24.679Z,90.62
2022-09-28T07:40:24.865Z,90.64
2022-09-28T07:41:24.906Z,90.24
2022-09-28T07:42:25.027Z,90.40
2022-09-28T07:43:25.144Z,90.16
2022-09-28T07:44:25.234Z,89.74
2022-09-28T07:45:25.363Z,89.58
2022-09-28T07:46:25.623Z,89.78
2022-09-28T07:47:25.603Z,89.17
2022-09-28T07:48:25.722Z,89.32
2022-09-28T07:49:25.825Z,89.59
2022-09-28T07:50:25.922Z,89.15
2022-09-28T07:51:26.093Z,88.66
2022-09-28T07:52:26.162Z,88.91
2022-09-28T07:53:26.254Z,89.19
2022-09-28T07:54:26.374Z,89.62
2022-09-28T07:55:26.501Z,89.22
2022-09-28T07:56:26.642Z,88.64
2022-09-28T07:57:26.705Z,88.30
2022-09-28T07:58:26.816Z,88.54
2022-09-28T07:59:26.925Z,87.64
2022-09-28T08:00:28.938Z,87.40
2022-09-28T08:01:28.249Z,86.77
2022-09-28T08:02:27.319Z,87.57
2022-09-28T08:03:27.391Z,86.47
2022-09-28T08:04:27.478Z,86.14
2022-09-28T08:05:27.591Z,86.11
2022-09-28T08:06:27.740Z,86.33
2022-09-28T08:07:27.819Z,85.45
2022-09-28T08:08:27.920Z,86.09
2022-09-28T08:09:28.021Z,85.81
2022-09-28T08:10:28.160Z,85.18
2022-09-28T08:11:28.308Z,84.59
2022-09-28T08:12:28.400Z,86.64
2022-09-28T08:13:28.518Z,84.78
2022-09-28T08:14:28.669Z,83.00
2022-09-28T08:15:28.817Z,82.47
2022-09-28T08:16:29.065Z,81.70
2022-09-28T08:17:29.056Z,82.75
2022-09-28T08:18:29.200Z,83.66
2022-09-28T08:19:29.347Z,83.88
2022-09-28T08:20:29.495Z,84.52
2022-09-28T08:21:29.667Z,84.66
2022-09-28T08:22:29.767Z,85.22
2022-09-28T08:23:29.856Z,84.56
2022-09-28T08:24:30.016Z,84.39
2022-09-28T08:25:30.108Z,84.13
2022-09-28T08:26:30.289Z,83.96
2022-09-28T08:27:30.364Z,84.14
2022-09-28T08:28:30.530Z,83.30
2022-09-28T08:29:30.617Z,84.13
2022-09-28T08:30:30.764Z,84.86
2022-09-28T08:31:30.856Z,84.22
2022-09-28T08:32:30.956Z,83.81
2022-09-28T08:33:31.084Z,83.82
2022-09-28T08:34:31.205Z,83.55
2022-09-28T08:35:31.350Z,83.74
2022-09-28T08:36:31.517Z,83.73
2022-09-28T08:37:31.618Z,83.00
2022-09-28T08:38:31.784Z,83.68
2022-09-28T08:39:31.882Z,82.75
2022-09-28T08:40:32.068Z,82.92
2022-09-28T08:41:32.174Z,83.12
2022-09-28T08:42:32.303Z,83.37
2022-09-28T08:43:32.445Z,83.17
2022-09-28T08:44:32.660Z,83.65
2022-09-28T08:45:32.713Z,83.42
2022-09-28T08:46:32.911Z,84.04
2022-09-28T08:47:32.971Z,83.05
2022-09-28T08:48:33.091Z,81.83
2022-09-28T08:49:33.476Z,82.69
2022-09-28T08:50:33.363Z,81.77
2022-09-28T08:51:33.553Z,83.12
2022-09-28T08:52:33.651Z,82.34
2022-09-28T08:53:33.793Z,82.42
2022-09-28T08:54:33.939Z,82.02
2022-09-28T08:55:34.091Z,81.24
2022-09-28T08:56:34.264Z,80.90
2022-09-28T08:57:34.362Z,81.07
2022-09-28T08:58:34.538Z,81.50
2022-09-28T08:59:34.640Z,81.63
2022-09-28T09:00:34.799Z,81.70
2022-09-28T09:01:35.030Z,81.55
2022-09-28T09:02:35.048Z,81.31
2022-09-28T09:03:35.194Z,80.77
2022-09-28T09:04:35.267Z,81.01
2022-09-28T09:05:35.420Z,81.80
2022-09-28T09:06:35.659Z,81.32
2022-09-28T09:07:35.652Z,81.74
2022-09-28T09:08:35.808Z,82.08
2022-09-28T09:09:35.947Z,81.44
2022-09-28T09:10:36.038Z,81.27
2022-09-28T09:11:36.197Z,81.75
2022-09-28T09:12:36.318Z,81.48
2022-09-28T09:13:36.427Z,81.21
2022-09-28T09:14:36.567Z,80.76
2022-09-28T09:15:36.698Z,80.49
2022-09-28T09:16:36.895Z,80.78
2022-09-28T09:17:36.976Z,80.38
2022-09-28T09:18:37.116Z,80.60
2022-09-28T09:19:37.298Z,79.98
2022-09-28T09:20:37.355Z,81.08
2022-09-28T09:21:37.485Z,80.14
2022-09-28T09:22:37.586Z,79.26
2022-09-28T09:23:37.725Z,78.66
2022-09-28T09:24:37.865Z,77.81
2022-09-28T09:25:38.712Z,79.80
2022-09-28T09:26:38.116Z,79.92
2022-09-28T09:27:38.205Z,77.03
2022-09-28T09:28:38.362Z,76.82
2022-09-28T09:29:38.445Z,75.73
2022-09-28T09:30:38.619Z,76.81
2022-09-28T09:31:38.755Z,74.49
2022-09-28T09:32:38.844Z,74.03
2022-09-28T09:33:38.995Z,74.47
2022-09-28T09:34:39.103Z,75.19
2022-09-28T09:35:39.246Z,73.26
2022-09-28T09:36:39.405Z,73.83
2022-09-28T09:37:39.508Z,73.56
2022-09-28T09:38:39.652Z,74.15
2022-09-28T09:39:39.763Z,73.91
2022-09-28T09:40:39.918Z,74.74
2022-09-28T09:41:40.016Z,73.83
2022-09-28T09:42:40.123Z,74.69
2022-09-28T09:43:40.225Z,74.32
2022-09-28T09:44:40.338Z,72.47
2022-09-28T09:45:40.476Z,73.38
2022-09-28T09:46:40.602Z,72.73
2022-09-28T09:47:40.673Z,73.51
2022-09-28T09:48:40.762Z,72.69
2022-09-28T09:49:40.922Z,72.12
2022-09-28T09:50:41.031Z,71.73
2022-09-28T09:51:41.234Z,70.99
2022-09-28T09:52:44.303Z,71.68
2022-09-28T09:53:41.422Z,71.59
2022-09-28T09:54:41.515Z,71.87
2022-09-28T09:55:41.658Z,70.69
2022-09-28T09:56:41.841Z,70.15
2022-09-28T09:57:41.939Z,71.41
2022-09-28T09:58:42.101Z,69.87
2022-09-28T09:59:42.324Z,70.82
2022-09-28T10:00:42.320Z,71.31
2022-09-28T10:01:42.539Z,70.51
2022-09-28T10:02:42.692Z,69.41
2022-09-28T10:03:42.721Z,69.77
2022-09-28T10:04:42.860Z,69.90
2022-09-28T10:05:43.020Z,70.03
2022-09-28T10:06:43.169Z,72.53
2022-09-28T10:07:43.716Z,70.66
2022-09-28T10:08:43.406Z,70.85
2022-09-28T10:09:43.508Z,70.87
2022-09-28T10:10:43.610Z,72.01
2022-09-28T10:11:43.778Z,71.30
2022-09-28T10:12:43.918Z,71.25
2022-09-28T10:13:44.007Z,73.32
2022-09-28T10:14:44.160Z,71.95
2022-09-28T10:15:44.248Z,72.16
2022-09-28T10:16:44.511Z,71.67
2022-09-28T10:17:44.529Z,71.50
2022-09-28T10:18:44.629Z,71.41
2022-09-28T10:19:44.738Z,72.21
2022-09-28T10:20:44.961Z,72.09
2022-09-28T10:21:44.992Z,71.42
2022-09-28T10:22:45.078Z,71.80
2022-09-28T10:23:45.208Z,72.90
2022-09-28T10:24:45.322Z,72.31
2022-09-28T10:25:45.477Z,73.32
2022-09-28T10:26:45.617Z,71.63
2022-09-28T10:27:45.707Z,69.95
2022-09-28T10:28:45.876Z,71.27
2022-09-28T10:29:45.956Z,69.81
2022-09-28T10:30:46.158Z,70.46
2022-09-28T10:31:46.238Z,70.41
2022-09-28T10:32:46.347Z,69.23
2022-09-28T10:33:46.506Z,68.64
2022-09-28T10:34:50.261Z,67.91
2022-09-28T10:35:46.721Z,68.16
2022-09-28T10:36:46.882Z,68.41
2022-09-28T10:37:46.999Z,68.00
2022-09-28T10:38:47.076Z,67.76
2022-09-28T10:39:47.217Z,67.34
2022-09-28T10:40:47.347Z,67.28
2022-09-28T10:41:47.447Z,66.50
2022-09-28T10:42:47.545Z,66.74
2022-09-28T10:43:50.170Z,66.20
2022-09-28T10:44:47.796Z,67.16
2022-09-28T10:45:48.014Z,67.04
2022-09-28T10:46:48.104Z,66.09
2022-09-28T10:47:48.214Z,66.28
2022-09-28T10:48:48.298Z,66.12
2022-09-28T10:49:48.445Z,66.82
2022-09-28T10:50:48.531Z,66.08
2022-09-28T10:51:48.730Z,67.19
2022-09-28T10:52:48.826Z,66.49
2022-09-28T10:53:48.933Z,66.82
2022-09-28T10:54:49.099Z,65.67
2022-09-28T10:55:49.214Z,66.74
2022-09-28T10:56:49.319Z,66.56
2022-09-28T10:57:49.426Z,67.28
2022-09-28T10:58:49.524Z,67.78
2022-09-28T10:59:49.663Z,67.66
2022-09-28T11:00:49.810Z,67.69
2022-09-28T11:01:50.043Z,67.94
2022-09-28T11:02:50.087Z,68.04
2022-09-28T11:03:50.215Z,67.57
2022-09-28T11:04:50.333Z,67.87
2022-09-28T11:05:50.427Z,66.37
2022-09-28T11:06:50.808Z,65.67
2022-09-28T11:07:50.704Z,65.26
2022-09-28T11:08:50.859Z,66.16
2022-09-28T11:09:50.993Z,64.41
2022-09-28T11:10:51.114Z,64.49
2022-09-28T11:11:51.262Z,67.62
2022-09-28T11:12:51.363Z,68.37
2022-09-28T11:13:51.468Z,66.08
2022-09-28T11:14:51.571Z,65.68
2022-09-28T11:15:51.672Z,66.18
2022-09-28T11:16:51.927Z,66.69
2022-09-28T11:17:51.894Z,67.51
2022-09-28T11:18:51.971Z,66.64
2022-09-28T11:19:52.081Z,68.64
2022-09-28T11:20:52.246Z,68.50
2022-09-28T11:21:52.370Z,66.56
2022-09-28T11:22:53.654Z,65.67
2022-09-28T11:23:52.610Z,66.17
2022-09-28T11:24:52.732Z,65.77
2022-09-28T11:25:52.841Z,65.27
2022-09-28T11:26:53.521Z,64.98
2022-09-28T11:27:53.118Z,64.06
2022-09-28T11:28:53.230Z,64.08
2022-09-28T11:29:53.350Z,64.58
2022-09-28T11:30:53.504Z,65.12
2022-09-28T11:31:53.618Z,65.43
2022-09-28T11:32:53.763Z,65.63
2022-09-28T11:33:53.822Z,65.79
2022-09-28T11:34:59.453Z,66.36
2022-09-28T11:35:55.066Z,66.95
2022-09-28T11:36:56.455Z,66.45
2022-09-28T11:37:55.339Z,66.38
2022-09-28T11:38:54.475Z,66.54
2022-09-28T11:39:54.629Z,66.99
2022-09-28T11:40:54.843Z,66.88
2022-09-28T11:41:54.889Z,66.90
2022-09-28T11:42:55.041Z,66.74
2022-09-28T11:43:55.172Z,67.17
2022-09-28T11:44:55.228Z,67.29
2022-09-28T11:45:55.392Z,67.15
2022-09-28T11:47:02.524Z,66.96
2022-09-28T11:47:55.592Z,67.49
2022-09-28T11:48:55.692Z,67.92
2022-09-28T11:49:55.782Z,67.63
2022-09-28T11:50:55.942Z,67.09
2022-09-28T11:51:56.062Z,67.39
2022-09-28T11:52:56.174Z,67.19
2022-09-28T11:53:56.273Z,67.74
2022-09-28T11:54:56.424Z,69.07
2022-09-28T11:55:56.513Z,67.71
2022-09-28T11:56:56.696Z,66.59
2022-09-28T11:57:56.741Z,65.69
2022-09-28T11:58:56.846Z,65.47
2022-09-28T11:59:57.010Z,65.23
2022-09-28T12:00:57.137Z,65.22
2022-09-28T12:01:57.314Z,65.35
2022-09-28T12:02:57.473Z,65.53
2022-09-28T12:03:57.500Z,65.35
2022-09-28T12:04:57.591Z,67.68
2022-09-28T12:05:57.701Z,67.46
2022-09-28T12:06:58.888Z,66.37
2022-09-28T12:07:57.947Z,66.22
2022-09-28T12:08:58.071Z,67.57
2022-09-28T12:09:58.179Z,65.38
2022-09-28T12:10:58.309Z,65.38
2022-09-28T12:11:58.489Z,65.63
2022-09-28T12:12:58.541Z,65.74
2022-09-28T12:13:58.682Z,65.55
2022-09-28T12:14:58.782Z,67.08
2022-09-28T12:16:23.452Z,68.45
2022-09-28T12:17:06.213Z,65.82
2022-09-28T12:18:00.241Z,66.33
2022-09-28T12:19:59.428Z,66.25
2022-09-28T12:21:04.424Z,65.76
2022-09-28T12:22:00.686Z,67.08
2022-09-28T12:22:59.774Z,69.73
2022-09-28T12:23:59.929Z,68.52
2022-09-28T12:25:00.035Z,67.06
2022-09-28T12:26:00.221Z,66.77
2022-09-28T12:27:00.298Z,66.78
2022-09-28T12:28:00.566Z,69.40
2022-09-28T12:29:00.552Z,66.72
2022-09-28T12:30:00.644Z,66.38
2022-09-28T12:31:00.943Z,66.59
2022-09-28T12:32:00.897Z,66.72
2022-09-28T12:33:01.121Z,66.74
2022-09-28T12:34:02.115Z,69.66
2022-09-28T12:35:01.399Z,67.57
2022-09-28T12:36:01.388Z,67.72
2022-09-28T12:37:01.506Z,68.86
2022-09-28T12:38:01.634Z,68.97
2022-09-28T12:39:19.147Z,69.57
2022-09-28T12:40:03.162Z,69.13
2022-09-28T12:41:02.043Z,68.59
2022-09-28T12:42:02.158Z,70.18
2022-09-28T12:43:02.328Z,70.33
2022-09-28T12:44:02.387Z,69.58
2022-09-28T12:45:02.563Z,70.53
2022-09-28T12:46:17.971Z,70.14
2022-09-28T12:47:03.871Z,70.36
2022-09-28T12:48:02.974Z,69.61
2022-09-28T12:51:04.322Z,69.52
2022-09-28T12:52:03.438Z,69.53
2022-09-28T12:53:03.585Z,68.41
2022-09-28T12:54:03.631Z,68.22
2022-09-28T12:55:03.792Z,68.02
2022-09-28T12:56:03.863Z,68.20
2022-09-28T12:57:03.953Z,67.94